ilmateenistus.ee keskkonnaagentuur.ee
EETN Tallinn
FTEO31 EETN 212300
TAF EETN 212310Z 2200/2224 24018G30KT 9999 OVC013 TEMPO 2202/2207
    3000 SHRA BKN004 SCT013CB OVC015 BECMG 2207/2209 28010KT SCT020CB
    BKN025 BECMG 2219/2221 22005KT 5000 BR BKN003=

METAR EETN 212320Z 21017KT 9999 OVC015 11/08 Q1011 =
Tallinn
EEKA Kärdla
METAR EEKA 212250Z NIL=
Kärdla
EEKE Kuressaare
SPECI EEKE 212333Z AUTO 23015KT ////NDV OVC011 12/10 Q1015=
Kuressaare
EEPU Pärnu
METAR EEPU 212250Z NIL=
Pärnu
EETU Tartu
FCEO32 EETN 212000
TAF EETU 212000Z 2121/2203 21015KT 9999 SCT008 BECMG 2122/2124 BKN005
    SCT013CB PROB30 TEMPO 2200/2203 2000 BR=

METAR EETU 212320Z 21015KT 9999 SCT013 08/05 Q1017=
Tartu
EEEI Ämari
SPECI EEEI 212307Z 19015KTG25 9999 OVC014 11/08 Q1012=
Ämari